Time;durP1;ratioP1;P1;durP2;ratioP2;P2;SDS_P1;SDS_P2;PMS_P1;PMS_P2;Temp;Humidity;BMP_temperature;BMP_pressure;BME280_temperature;BME280_humidity;BME280_pressure;Samples;Min_cycle;Max_cycle;Signal;HPM_P1;HPM_P2
2022/03/03 00:01:40;;;;;;;13.05;8.07;;;;;;;4.66;63.70;102153.78;5013385;28;20048;-79
2022/03/03 00:04:06;;;;;;;9.80;7.43;;;;;;;4.67;63.66;102155.53;5014741;28;20046;-79
2022/03/03 00:06:32;;;;;;;9.48;8.15;;;;;;;4.67;64.05;102165.91;5004126;28;20128;-79
2022/03/03 00:08:57;;;;;;;10.82;7.45;;;;;;;4.67;64.02;102158.13;5014156;28;20033;-79
2022/03/03 00:11:23;;;;;;;12.68;8.27;;;;;;;4.65;64.10;102155.53;5010036;28;20096;-79
2022/03/03 00:13:48;;;;;;;12.23;8.77;;;;;;;4.63;63.50;102149.47;5014116;28;20105;-79
2022/03/03 00:16:14;;;;;;;13.52;9.05;;;;;;;4.63;63.64;102146.00;5013109;28;20270;-79
2022/03/03 00:18:39;;;;;;;8.15;7.18;;;;;;;4.60;63.86;102142.53;5014687;28;20049;-79
2022/03/03 00:21:05;;;;;;;10.82;8.15;;;;;;;4.58;63.50;102146.84;5014041;28;20042;-79
2022/03/03 00:23:30;;;;;;;9.98;7.85;;;;;;;4.56;63.81;102145.94;4998183;28;20100;-79
2022/03/03 00:25:56;;;;;;;9.05;7.68;;;;;;;4.54;63.74;102134.69;5003788;28;20116;-79
2022/03/03 00:28:21;;;;;;;8.38;6.90;;;;;;;4.52;63.29;102139.03;5017730;28;20045;-79
2022/03/03 00:30:47;;;;;;;11.25;7.78;;;;;;;4.50;63.21;102140.75;5017225;28;20069;-79
2022/03/03 00:33:12;;;;;;;10.18;7.85;;;;;;;4.49;63.65;102135.53;5034766;28;20033;-79
2022/03/03 00:35:38;;;;;;;12.57;7.05;;;;;;;4.47;63.94;102143.31;5017160;28;20046;-78
2022/03/03 00:38:03;;;;;;;11.20;7.57;;;;;;;4.47;64.15;102145.91;5033844;28;20349;-79
2022/03/03 00:40:28;;;;;;;9.63;7.15;;;;;;;4.46;64.08;102139.00;5017318;28;20310;-79
2022/03/03 00:42:54;;;;;;;9.55;6.90;;;;;;;4.46;64.17;102138.13;5016859;28;20486;-78
2022/03/03 00:45:19;;;;;;;7.82;6.95;;;;;;;4.45;63.71;102144.19;4997983;28;20256;-78
2022/03/03 00:47:45;;;;;;;9.88;7.32;;;;;;;4.42;64.06;102140.72;5016566;28;20033;-78
2022/03/03 00:50:10;;;;;;;9.32;7.00;;;;;;;4.41;63.91;102138.09;5034675;28;20071;-78
2022/03/03 00:52:35;;;;;;;10.07;7.22;;;;;;;4.39;63.93;102153.66;5035856;28;20041;-78
2022/03/03 00:55:02;;;;;;;7.32;6.57;;;;;;;4.36;63.98;102144.97;4999854;28;20348;-78
2022/03/03 00:57:28;;;;;;;13.27;8.05;;;;;;;4.33;63.48;102140.66;5035024;28;20049;-78
2022/03/03 00:59:53;;;;;;;10.50;7.72;;;;;;;4.29;63.78;102135.44;5034852;28;20300;-78
2022/03/03 01:02:19;;;;;;;7.90;7.03;;;;;;;4.28;64.04;102131.97;5016884;28;20384;-78
2022/03/03 01:04:44;;;;;;;10.85;7.88;;;;;;;4.21;63.37;102132.78;5034748;28;20349;-78
2022/03/03 01:07:09;;;;;;;10.20;7.63;;;;;;;4.17;63.32;102125.88;5033788;28;20060;-78
2022/03/03 01:09:35;;;;;;;10.80;7.85;;;;;;;4.17;63.77;102128.47;5034640;28;20036;-78
2022/03/03 01:12:00;;;;;;;9.90;7.70;;;;;;;4.14;64.13;102124.09;5017172;28;20068;-78
2022/03/03 01:14:25;;;;;;;8.55;7.55;;;;;;;4.13;64.25;102114.59;5038835;28;20041;-78
2022/03/03 01:16:51;;;;;;;11.40;7.45;;;;;;;4.13;64.56;102124.09;5021201;28;20104;-78
2022/03/03 01:19:18;;;;;;;8.05;6.88;;;;;;;4.12;64.65;102118.03;5037827;28;20044;-78
2022/03/03 01:21:43;;;;;;;11.32;8.35;;;;;;;4.14;64.55;102118.06;5038412;28;20037;-78
2022/03/03 01:24:08;;;;;;;8.85;6.85;;;;;;;4.13;64.55;102111.13;5036512;28;20096;-78
2022/03/03 01:26:34;;;;;;;9.50;7.13;;;;;;;4.12;64.22;102105.06;5040098;28;20403;-78
2022/03/03 01:28:59;;;;;;;9.23;7.50;;;;;;;4.13;64.52;102103.34;5039753;28;20353;-78
2022/03/03 01:31:25;;;;;;;10.93;8.05;;;;;;;4.11;64.18;102110.25;5039734;28;20313;-78
2022/03/03 01:33:50;;;;;;;10.18;7.38;;;;;;;4.09;64.51;102101.59;5039875;28;20116;-78
2022/03/03 01:36:15;;;;;;;9.82;7.50;;;;;;;4.07;64.05;102087.75;5022528;28;20178;-78
2022/03/03 01:38:41;;;;;;;10.27;7.70;;;;;;;4.04;63.93;102086.03;5021650;28;20108;-78
2022/03/03 01:41:08;;;;;;;12.43;8.00;;;;;;;4.00;64.24;102082.56;5021925;28;20604;-78
2022/03/03 01:43:34;;;;;;;9.32;7.68;;;;;;;3.99;64.44;102079.94;5039495;28;20087;-78
2022/03/03 01:45:59;;;;;;;11.70;7.25;;;;;;;3.98;64.49;102083.38;5039658;28;20112;-79
2022/03/03 01:48:24;;;;;;;10.43;7.57;;;;;;;3.97;64.65;102081.66;5005100;28;20068;-78
2022/03/03 01:50:52;;;;;;;9.63;7.13;;;;;;;3.97;64.82;102077.34;5039685;28;20034;-78
2022/03/03 01:53:17;;;;;;;11.07;7.28;;;;;;;3.97;64.92;102082.50;5039851;28;20036;-78
2022/03/03 01:55:43;;;;;;;10.52;7.32;;;;;;;3.96;64.76;102074.72;5005547;28;20241;-78
2022/03/03 01:58:09;;;;;;;7.75;6.57;;;;;;;3.95;64.68;102071.28;5021683;28;20367;-78
2022/03/03 02:03:55;;;;;;;7.30;6.47;;;;;;;3.93;64.87;102066.91;5017538;28;20045;-78
2022/03/03 02:06:21;;;;;;;9.43;6.95;;;;;;;3.91;64.83;102064.34;5037884;28;20037;-78
2022/03/03 02:08:46;;;;;;;10.70;7.25;;;;;;;3.90;65.00;102052.22;5039865;28;20041;-78
2022/03/03 02:11:12;;;;;;;8.05;6.05;;;;;;;3.90;65.12;102056.56;5039063;28;20041;-78
2022/03/03 02:13:38;;;;;;;10.57;7.28;;;;;;;3.86;64.52;102050.47;5039228;28;20206;-78
2022/03/03 02:16:08;;;;;;;10.35;6.93;;;;;;;3.85;64.76;102056.50;5004704;28;20329;-78
2022/03/03 02:18:39;;;;;;;7.38;6.22;;;;;;;3.82;64.92;102052.19;5022012;28;20041;-78
2022/03/03 02:21:05;;;;;;;8.93;6.57;;;;;;;3.82;65.10;102053.88;5020968;28;20036;-78
2022/03/03 02:23:30;;;;;;;8.90;7.25;;;;;;;3.82;65.21;102048.72;5038756;28;20026;-78
2022/03/03 02:25:56;;;;;;;9.77;6.90;;;;;;;3.80;65.16;102040.94;5020428;28;20248;-78
2022/03/03 02:28:21;;;;;;;9.45;6.82;;;;;;;3.79;65.25;102044.38;5020953;28;20053;-78
2022/03/03 02:30:47;;;;;;;9.07;7.45;;;;;;;3.76;65.13;102043.50;5021752;28;20037;-78
2022/03/03 02:33:12;;;;;;;9.38;7.22;;;;;;;3.74;65.17;102037.44;5021419;28;20045;-78
2022/03/03 02:35:37;;;;;;;9.27;7.30;;;;;;;3.72;65.34;102032.25;5021202;28;20049;-78
2022/03/03 02:38:03;;;;;;;8.40;7.00;;;;;;;3.71;65.20;102034.81;5020894;28;20041;-78
2022/03/03 02:40:29;;;;;;;11.63;8.02;;;;;;;3.67;64.92;102036.53;5005181;28;20033;-78
2022/03/03 02:42:55;;;;;;;10.55;7.55;;;;;;;3.63;65.05;102047.72;5038421;28;20033;-78
2022/03/03 02:45:21;;;;;;;10.45;7.32;;;;;;;3.60;65.04;102046.00;5021462;28;20064;-78
2022/03/03 02:47:48;;;;;;;11.18;7.97;;;;;;;3.58;65.39;102045.09;5038759;28;20322;-78
2022/03/03 02:50:15;;;;;;;9.15;7.30;;;;;;;3.56;65.50;102039.03;5004637;28;20056;-78
2022/03/03 02:52:41;;;;;;;9.13;7.32;;;;;;;3.54;65.49;102034.69;5038691;28;20096;-78
2022/03/03 02:55:07;;;;;;;10.20;7.53;;;;;;;3.55;65.65;102039.03;5020774;28;20465;-78
2022/03/03 03:00:18;;;;;;;9.80;7.28;;;;;;;3.50;65.52;102028.63;5024160;28;20076;-77
2022/03/03 03:02:43;;;;;;;11.63;8.05;;;;;;;3.47;65.75;102023.41;5022083;28;20029;-76
2022/03/03 03:05:09;;;;;;;11.63;8.13;;;;;;;3.44;65.38;102028.59;5021455;28;20360;-76
2022/03/03 03:07:35;;;;;;;12.32;8.23;;;;;;;3.40;65.60;102029.41;5028991;28;20358;-76
2022/03/03 03:10:01;;;;;;;11.05;8.63;;;;;;;3.39;65.70;102027.69;5038030;28;20033;-76
2022/03/03 03:12:29;;;;;;;16.10;9.40;;;;;;;3.35;65.42;102025.94;5039593;28;20056;-76
2022/03/03 03:14:54;;;;;;;14.85;10.25;;;;;;;3.30;65.84;102018.13;5021316;28;20254;-76
2022/03/03 03:17:20;;;;;;;10.80;8.32;;;;;;;3.30;66.23;102018.13;5039380;28;20071;-76
2022/03/03 03:19:45;;;;;;;10.02;7.97;;;;;;;3.29;66.20;102011.19;5021752;28;20399;-76
2022/03/03 03:22:10;;;;;;;14.88;9.43;;;;;;;3.28;66.47;102013.78;5021450;28;20042;-76
2022/03/03 03:24:36;;;;;;;12.00;8.60;;;;;;;3.25;66.08;102010.28;5022162;28;20225;-76
2022/03/03 03:27:01;;;;;;;13.38;9.68;;;;;;;3.23;66.32;102012.00;5020795;28;20049;-76
2022/03/03 03:29:27;;;;;;;15.68;9.73;;;;;;;3.19;66.23;102018.03;5039287;28;20381;-76
2022/03/03 03:31:52;;;;;;;12.27;9.10;;;;;;;3.17;66.62;102006.78;5021076;28;20033;-76
2022/03/03 03:34:17;;;;;;;11.80;8.73;;;;;;;3.17;66.68;102011.97;5021466;28;20048;-76
2022/03/03 03:36:43;;;;;;;14.07;8.90;;;;;;;3.15;66.57;102011.09;5021782;28;20045;-76
2022/03/03 03:39:08;;;;;;;12.40;9.43;;;;;;;3.13;66.65;102007.63;5004124;28;20356;-76
2022/03/03 03:41:33;;;;;;;13.57;9.82;;;;;;;3.12;66.65;102010.19;5020944;28;20044;-76
2022/03/03 03:43:59;;;;;;;14.68;8.63;;;;;;;3.09;66.89;102008.44;5004621;28;20017;-76
2022/03/03 03:46:24;;;;;;;12.93;9.50;;;;;;;3.10;66.91;102004.13;5020944;28;20117;-76
2022/03/03 03:48:49;;;;;;;13.45;9.30;;;;;;;3.11;67.30;102003.28;5021318;28;20046;-76
2022/03/03 03:51:16;;;;;;;10.88;8.05;;;;;;;3.11;67.18;101996.41;5038848;28;20344;-76
2022/03/03 03:53:41;;;;;;;12.93;8.05;;;;;;;3.12;67.37;101992.94;5004718;28;20041;-76
2022/03/03 03:56:07;;;;;;;13.10;8.27;;;;;;;3.14;67.40;101998.97;5038317;28;20052;-76
2022/03/03 03:58:32;;;;;;;10.65;7.78;;;;;;;3.14;67.43;102001.56;5004820;28;20056;-76
2022/03/03 04:00:58;;;;;;;9.38;7.20;;;;;;;3.15;67.38;101997.28;5038335;28;20044;-76
2022/03/03 04:03:23;;;;;;;9.30;6.78;;;;;;;3.15;67.27;101998.16;5038993;28;20263;-76
2022/03/03 04:05:48;;;;;;;8.00;7.00;;;;;;;3.14;67.40;101998.97;5000694;28;20026;-77
2022/03/03 04:08:14;;;;;;;10.32;7.53;;;;;;;3.15;67.37;101989.53;5033824;28;20092;-76
2022/03/03 04:10:39;;;;;;;9.27;6.80;;;;;;;3.15;67.58;101990.38;5020344;28;20100;-77
2022/03/03 04:13:05;;;;;;;9.30;7.55;;;;;;;3.15;67.39;101994.69;5037992;28;20101;-76
2022/03/03 04:15:31;;;;;;;10.95;8.43;;;;;;;3.14;67.33;101990.38;5038603;28;20033;-76
2022/03/03 04:17:56;;;;;;;9.55;7.20;;;;;;;3.13;67.58;101986.91;5020691;28;20202;-76
2022/03/03 04:20:22;;;;;;;10.35;7.90;;;;;;;3.12;67.44;101980.00;5038484;28;20229;-76
2022/03/03 04:22:48;;;;;;;9.80;7.35;;;;;;;3.11;67.48;101991.22;5021073;28;20064;-76
2022/03/03 04:25:14;;;;;;;12.13;8.32;;;;;;;3.10;67.07;101994.66;5038848;28;20041;-76
2022/03/03 04:27:40;;;;;;;10.23;8.02;;;;;;;3.09;67.46;101990.31;5038589;28;20061;-76
2022/03/03 04:30:11;;;;;;;12.52;9.20;;;;;;;3.06;67.54;101990.31;5037879;28;20029;-76
2022/03/03 04:32:41;;;;;;;14.30;9.00;;;;;;;3.03;67.38;101992.84;5038334;28;20038;-76
2022/03/03 04:35:08;;;;;;;12.82;9.73;;;;;;;3.00;67.51;101990.22;5020095;28;20032;-76
2022/03/03 04:37:34;;;;;;;12.95;9.63;;;;;;;2.97;67.80;101992.81;5038336;28;20366;-77
2022/03/03 04:40:01;;;;;;;13.20;9.52;;;;;;;2.94;67.91;101991.03;5000891;28;20334;-76
2022/03/03 04:42:26;;;;;;;13.95;9.43;;;;;;;2.95;67.68;101989.31;5029248;28;20119;-77
2022/03/03 04:44:51;;;;;;;12.07;9.00;;;;;;;2.91;68.00;101984.97;5038253;28;20060;-75
2022/03/03 04:47:17;;;;;;;12.52;9.77;;;;;;;2.88;68.32;101978.06;5037636;28;20029;-76
2022/03/03 04:49:42;;;;;;;13.55;9.38;;;;;;;2.85;68.04;101973.69;5020503;28;20286;-76
2022/03/03 04:52:08;;;;;;;17.48;10.30;;;;;;;2.83;68.18;101969.38;5019789;28;20045;-76
2022/03/03 04:54:33;;;;;;;11.73;9.27;;;;;;;2.83;68.27;101974.56;5039025;28;20276;-76
2022/03/03 04:56:59;;;;;;;14.25;10.00;;;;;;;2.82;68.20;101973.69;5038059;28;20029;-76
2022/03/03 04:59:24;;;;;;;15.43;9.90;;;;;;;2.80;68.07;101979.69;5032940;28;20041;-76
2022/03/03 05:01:51;;;;;;;14.10;10.07;;;;;;;2.78;68.24;101981.41;5019977;28;20048;-76
2022/03/03 05:04:17;;;;;;;15.70;10.40;;;;;;;2.76;68.28;101973.63;5035342;28;20033;-76
2022/03/03 05:06:43;;;;;;;17.00;11.52;;;;;;;2.72;68.25;101973.59;5033253;28;20033;-76
2022/03/03 05:09:08;;;;;;;15.70;10.50;;;;;;;2.69;68.39;101971.81;5019339;28;20033;-77
2022/03/03 05:11:34;;;;;;;14.63;9.70;;;;;;;2.67;68.58;101970.94;5037860;28;20052;-76
2022/03/03 05:13:59;;;;;;;14.43;10.05;;;;;;;2.65;68.43;101970.91;5020434;28;20041;-76
2022/03/03 05:16:24;;;;;;;12.48;9.63;;;;;;;2.66;68.76;101971.81;5020133;28;20053;-76
2022/03/03 05:18:50;;;;;;;14.77;9.55;;;;;;;2.64;68.53;101969.19;5019787;28;20029;-76
2022/03/03 05:21:15;;;;;;;17.15;10.07;;;;;;;2.66;68.80;101974.41;5020289;28;20045;-76
2022/03/03 05:23:41;;;;;;;11.77;9.00;;;;;;;2.65;68.71;101973.50;5038090;28;20044;-76
2022/03/03 05:26:06;;;;;;;14.43;9.65;;;;;;;2.64;68.74;101979.56;5002564;28;20106;-76
2022/03/03 05:28:32;;;;;;;10.90;8.63;;;;;;;2.65;68.67;101978.69;5037232;28;20293;-76
2022/03/03 05:30:57;;;;;;;11.57;8.38;;;;;;;2.65;68.77;101970.06;5037814;28;20379;-77
2022/03/03 05:33:22;;;;;;;12.55;9.23;;;;;;;2.65;68.78;101975.22;5020264;28;20052;-76
2022/03/03 05:35:55;;;;;;;10.07;7.85;;;;;;;2.64;68.87;101979.56;5037676;28;20245;-76
2022/03/03 05:38:21;;;;;;;12.88;8.27;;;;;;;2.65;68.73;101975.22;5019670;28;20391;-76
2022/03/03 05:40:47;;;;;;;11.77;8.10;;;;;;;2.65;68.93;101970.06;5003720;28;20030;-76
2022/03/03 05:43:12;;;;;;;12.00;8.90;;;;;;;2.64;68.83;101968.34;5037143;28;20563;-76
2022/03/03 05:45:38;;;;;;;11.32;8.70;;;;;;;2.62;68.99;101964.84;5036821;28;20320;-76
2022/03/03 05:48:04;;;;;;;11.80;8.52;;;;;;;2.64;69.06;101968.34;5003409;28;20256;-77
2022/03/03 05:50:29;;;;;;;11.77;8.38;;;;;;;2.64;68.86;101964.03;5019891;28;20045;-76
2022/03/03 05:52:59;;;;;;;8.48;7.57;;;;;;;2.62;68.80;101976.09;5037368;28;20109;-76
2022/03/03 05:55:25;;;;;;;9.75;7.88;;;;;;;2.62;68.72;101972.59;5020420;28;20050;-76
2022/03/03 05:57:54;;;;;;;11.70;8.50;;;;;;;2.61;68.83;101973.47;5019523;28;20124;-76
2022/03/03 06:00:20;;;;;;;;;;;;;;;2.58;68.78;101976.03;5042080;28;20083;-76
2022/03/03 06:02:50;;;;;;;12.15;8.93;;;;;;;2.55;68.71;101984.63;5041310;28;20229;-76
2022/03/03 06:05:22;;;;;;;14.70;9.10;;;;;;;2.53;68.76;101980.28;5041437;28;20045;-77
2022/03/03 06:07:51;;;;;;;13.85;10.35;;;;;;;2.49;68.64;101985.44;5037846;28;20372;-76
2022/03/03 06:10:22;;;;;;;14.70;9.50;;;;;;;2.44;68.76;101976.75;5022417;28;20479;-76
2022/03/03 06:12:48;;;;;;;12.10;9.40;;;;;;;2.41;69.08;101983.59;5039767;28;20071;-76
2022/03/03 06:15:14;;;;;;;15.68;9.57;;;;;;;2.39;69.15;101974.97;5021994;28;20029;-76
2022/03/03 06:17:42;;;;;;;11.82;8.82;;;;;;;2.39;69.24;101978.41;5040047;28;20037;-76
2022/03/03 06:20:08;;;;;;;15.87;10.80;;;;;;;2.37;69.38;101981.84;5021141;28;20098;-76
2022/03/03 06:22:34;;;;;;;18.27;11.48;;;;;;;2.35;69.20;101978.34;5039881;28;20345;-77
2022/03/03 06:24:59;;;;;;;15.45;10.18;;;;;;;2.34;69.39;101974.91;5021296;28;20131;-77
2022/03/03 06:27:29;;;;;;;15.02;10.82;;;;;;;2.34;69.38;101985.25;5037418;28;20068;-77
2022/03/03 06:29:56;;;;;;;13.50;9.45;;;;;;;2.34;69.68;101980.06;5038784;28;20052;-77
2022/03/03 06:32:21;;;;;;;12.10;9.45;;;;;;;2.34;69.37;101982.66;5021232;28;20040;-77
2022/03/03 06:34:46;;;;;;;14.65;10.85;;;;;;;2.34;69.63;101980.06;5021771;28;20061;-77
2022/03/03 06:37:12;;;;;;;12.52;8.90;;;;;;;2.35;69.64;101986.09;5038732;28;20456;-77
2022/03/03 06:39:37;;;;;;;12.52;8.93;;;;;;;2.36;69.52;101987.84;5020868;28;20041;-77
2022/03/03 06:42:04;;;;;;;12.25;8.38;;;;;;;2.36;69.67;101983.53;5038151;28;20025;-77
2022/03/03 06:44:29;;;;;;;13.02;8.95;;;;;;;2.35;69.67;101984.41;5038976;28;20053;-77
2022/03/03 06:46:55;;;;;;;12.57;9.07;;;;;;;2.35;69.48;101981.81;5015124;28;20097;-77
2022/03/03 06:49:21;;;;;;;15.10;10.02;;;;;;;2.35;69.42;101986.09;5039113;28;20053;-77
2022/03/03 06:51:48;;;;;;;11.40;8.73;;;;;;;2.34;69.67;101990.41;5020735;28;20352;-77
2022/03/03 06:54:18;;;;;;;12.20;9.48;;;;;;;2.33;69.56;101991.28;5021354;28;20071;-77
2022/03/03 06:56:53;;;;;;;14.98;10.70;;;;;;;2.32;69.60;101988.66;5004838;28;20033;-77
2022/03/03 06:59:21;;;;;;;13.63;9.35;;;;;;;2.29;69.68;101992.97;5021147;28;20271;-77
2022/03/03 07:01:49;;;;;;;14.50;9.83;;;;;;;2.30;69.89;101986.91;5039076;28;20033;-77
2022/03/03 07:04:16;;;;;;;12.13;8.85;;;;;;;2.29;69.85;101989.47;5020900;28;20021;-77
2022/03/03 07:06:43;;;;;;;15.18;10.52;;;;;;;2.26;69.89;101990.31;5019794;28;20241;-77
2022/03/03 07:09:09;;;;;;;18.88;12.25;;;;;;;2.22;69.61;101988.56;5037389;28;20121;-77
2022/03/03 07:11:36;;;;;;;18.63;11.63;;;;;;;2.22;69.86;101992.84;5038619;28;20045;-77
2022/03/03 07:14:02;;;;;;;15.93;10.90;;;;;;;2.19;69.97;101991.09;5038046;28;20039;-77
2022/03/03 07:16:40;;;;;;;14.20;10.27;;;;;;;2.19;70.43;101993.69;5003681;28;20117;-77
2022/03/03 07:19:14;;;;;;;13.75;10.00;;;;;;;2.21;70.58;101997.16;5036300;28;20059;-77
2022/03/03 07:22:10;;;;;;;17.23;10.90;;;;;;;2.20;70.62;102005.78;5037588;28;20034;-77
2022/03/03 07:24:45;;;;;;;15.73;10.77;;;;;;;2.21;70.65;102006.63;5018297;28;20029;-77
2022/03/03 07:27:20;;;;;;;17.48;11.63;;;;;;;2.20;70.32;102007.47;5036113;28;20047;-77
2022/03/03 07:29:50;;;;;;;16.98;10.50;;;;;;;2.20;70.71;102005.78;5038499;28;20029;-77
2022/03/03 07:32:17;;;;;;;;;;;;;;;2.21;70.99;102004.03;5036278;28;20062;-77
2022/03/03 07:34:47;;;;;;;16.27;11.00;;;;;;;2.20;70.91;102000.59;5041113;28;19908;-77
2022/03/03 07:37:18;;;;;;;17.17;12.02;;;;;;;2.20;71.16;101998.03;5037372;28;20029;-77
2022/03/03 07:39:45;;;;;;;14.68;10.95;;;;;;;2.23;71.45;102003.22;5020559;28;20418;-77
2022/03/03 07:42:15;;;;;;;17.73;11.55;;;;;;;2.25;71.35;102000.66;5037580;28;20337;-77
2022/03/03 07:44:41;;;;;;;14.80;10.63;;;;;;;2.26;71.40;102002.41;5032691;28;20154;-77
2022/03/03 07:47:08;;;;;;;18.17;12.50;;;;;;;2.26;71.12;102005.84;5028311;28;20614;-77
2022/03/03 07:49:34;;;;;;;16.98;12.07;;;;;;;2.27;71.24;102001.53;5040624;28;20137;-77
2022/03/03 07:52:05;;;;;;;18.92;12.80;;;;;;;2.26;71.26;102004.97;5019105;28;20052;-77
2022/03/03 07:54:32;;;;;;;16.70;12.23;;;;;;;2.27;71.39;102004.13;5037179;28;20403;-77
2022/03/03 07:57:00;;;;;;;16.38;11.55;;;;;;;2.28;71.47;102009.31;5037569;28;20033;-77
2022/03/03 07:59:33;;;;;;;24.60;14.65;;;;;;;2.26;71.54;102002.41;5007338;28;20064;-77
2022/03/03 08:02:04;;;;;;;18.20;12.98;;;;;;;2.31;71.95;102003.31;5041230;28;20060;-77
2022/03/03 08:04:33;;;;;;;24.77;15.05;;;;;;;2.31;71.93;102005.91;5038386;28;20040;-77
2022/03/03 08:07:04;;;;;;;19.00;12.23;;;;;;;2.36;71.96;102006.81;5042133;28;20033;-77
2022/03/03 08:09:32;;;;;;;28.55;13.32;;;;;;;2.37;72.05;102007.69;5038138;28;20037;-77
2022/03/03 08:12:02;;;;;;;18.80;12.38;;;;;;;2.40;72.03;102002.53;5038222;28;20351;-77
2022/03/03 08:14:29;;;;;;;20.85;13.50;;;;;;;2.40;71.97;102008.59;5021543;28;20032;-77
2022/03/03 08:16:54;;;;;;;20.52;13.23;;;;;;;2.42;72.17;102008.59;5049549;28;20415;-77
2022/03/03 08:19:21;;;;;;;23.13;13.77;;;;;;;2.40;71.59;102016.34;5019961;28;20037;-77
2022/03/03 08:21:48;;;;;;;20.63;13.30;;;;;;;2.40;71.52;102015.47;5035440;28;20033;-77
2022/03/03 08:24:14;;;;;;;24.30;15.63;;;;;;;2.38;71.63;102010.28;5035856;28;20037;-77
2022/03/03 08:26:41;;;;;;;22.23;15.38;;;;;;;2.40;71.74;102013.78;5005924;28;20042;-76
2022/03/03 08:29:07;;;;;;;21.50;13.70;;;;;;;2.42;70.98;102013.75;5043109;28;20746;-77
2022/03/03 08:31:38;;;;;;;19.80;13.73;;;;;;;2.43;70.73;102018.97;5032090;28;20353;-77
2022/03/03 08:34:12;;;;;;;25.02;14.63;;;;;;;2.42;70.93;102024.09;5038960;28;20039;-77
2022/03/03 08:36:50;;;;;;;25.38;14.63;;;;;;;2.44;70.91;102019.84;5037899;28;20047;-77
2022/03/03 08:39:18;;;;;;;21.25;12.68;;;;;;;2.49;71.10;102024.22;5037810;28;20108;-77
2022/03/03 08:41:45;;;;;;;23.48;14.52;;;;;;;2.50;71.19;102020.75;5037077;28;20033;-77
2022/03/03 08:44:11;;;;;;;22.77;14.95;;;;;;;2.54;70.35;102020.81;5018196;28;20063;-77
2022/03/03 08:46:40;;;;;;;22.85;13.98;;;;;;;2.58;70.86;102030.34;5037381;28;20319;-77
2022/03/03 08:49:08;;;;;;;19.83;14.07;;;;;;;2.61;70.13;102027.78;5037184;28;20218;-77
2022/03/03 08:51:35;;;;;;;24.73;15.02;;;;;;;2.66;70.08;102020.97;5032134;28;20041;-77
2022/03/03 08:54:01;;;;;;;26.20;13.98;;;;;;;2.67;69.55;102023.56;5037651;28;20127;-77
2022/03/03 08:56:26;;;;;;;25.48;15.02;;;;;;;2.70;69.13;102020.13;5037231;28;20357;-77
2022/03/03 08:58:53;;;;;;;21.75;14.82;;;;;;;2.71;68.90;102018.41;5000912;28;20029;-76
2022/03/03 09:01:19;;;;;;;20.23;13.65;;;;;;;2.75;68.98;102017.56;5038671;28;20256;-77
2022/03/03 09:03:45;;;;;;;22.48;14.00;;;;;;;2.80;68.47;102010.75;5037513;28;20029;-76
2022/03/03 09:06:15;;;;;;;19.92;13.52;;;;;;;2.83;68.13;102015.94;5036962;28;20325;-77
2022/03/03 09:08:40;;;;;;;21.23;13.80;;;;;;;2.85;68.48;102015.09;5037448;28;20356;-77
2022/03/03 09:11:06;;;;;;;26.38;14.65;;;;;;;2.87;68.31;102026.38;5035755;28;20135;-77
2022/03/03 09:13:32;;;;;;;22.75;14.02;;;;;;;2.93;68.57;102033.31;5036247;28;20105;-76
2022/03/03 09:15:58;;;;;;;20.58;12.95;;;;;;;2.97;67.39;102029.03;5035010;28;20041;-77
2022/03/03 09:18:23;;;;;;;18.40;13.25;;;;;;;3.02;67.97;102025.63;5036029;28;20146;-77
2022/03/03 09:20:48;;;;;;;18.42;13.25;;;;;;;3.08;68.06;102030.00;5036504;28;20041;-77
2022/03/03 09:23:14;;;;;;;19.40;12.43;;;;;;;3.16;67.74;102035.25;5019171;28;20033;-77
2022/03/03 09:25:41;;;;;;;20.25;13.45;;;;;;;3.21;67.83;102029.25;5037162;28;20033;-76
2022/03/03 09:28:07;;;;;;;19.10;12.38;;;;;;;3.30;67.38;102022.44;5018808;28;20057;-77
2022/03/03 09:30:33;;;;;;;24.77;14.63;;;;;;;3.34;67.38;102024.19;5037246;28;20043;-77
2022/03/03 09:32:58;;;;;;;20.55;12.48;;;;;;;3.39;67.25;102019.91;5036109;28;20087;-77
2022/03/03 09:35:25;;;;;;;19.95;12.82;;;;;;;3.44;66.96;102023.41;5038491;28;20313;-77
2022/03/03 09:37:51;;;;;;;18.40;12.00;;;;;;;3.53;66.44;102012.22;5020192;28;20033;-77
2022/03/03 09:40:17;;;;;;;19.45;13.02;;;;;;;3.56;66.37;102010.53;5039752;28;20025;-77
2022/03/03 09:42:55;;;;;;;19.75;12.88;;;;;;;3.65;65.92;102005.41;5041209;28;20045;-77
2022/03/03 09:45:20;;;;;;;16.77;11.63;;;;;;;3.74;65.92;102002.03;5040533;28;20047;-77
2022/03/03 09:47:45;;;;;;;19.02;11.77;;;;;;;3.82;64.63;102007.25;5040874;28;20041;-77
2022/03/03 09:50:11;;;;;;;17.70;12.43;;;;;;;3.87;63.98;102008.13;5043671;28;20049;-77
2022/03/03 09:52:36;;;;;;;18.20;12.40;;;;;;;3.93;64.22;102005.59;5055197;28;20066;-77
2022/03/03 09:55:03;;;;;;;22.92;12.18;;;;;;;4.01;64.61;102016.00;5044519;28;20025;-77
2022/03/03 09:57:28;;;;;;;18.50;12.05;;;;;;;4.09;64.60;102010.84;5022404;28;20337;-77
2022/03/03 09:59:54;;;;;;;22.00;12.18;;;;;;;4.17;64.94;102004.00;5038983;28;20044;-76
2022/03/03 10:02:19;;;;;;;22.17;12.65;;;;;;;4.25;64.06;102004.03;5022739;28;20100;-77
2022/03/03 10:04:44;;;;;;;19.63;13.27;;;;;;;4.31;63.61;102001.44;5024151;28;20029;-77
2022/03/03 10:07:10;;;;;;;17.25;11.88;;;;;;;4.38;63.45;102014.47;5005178;28;20409;-77
2022/03/03 10:09:59;;;;;;;17.38;11.57;;;;;;;4.43;63.48;102006.69;5040019;28;20267;-77
2022/03/03 10:12:23;;;;;;;20.13;11.98;;;;;;;4.51;63.82;102006.69;5039753;28;20041;-77
2022/03/03 10:14:49;;;;;;;18.92;12.45;;;;;;;4.60;64.15;102004.13;5039730;28;20037;-77
2022/03/03 10:17:15;;;;;;;19.90;12.48;;;;;;;4.66;63.86;102001.56;5039813;28;20031;-77
2022/03/03 10:19:56;;;;;;;16.60;11.48;;;;;;;4.76;63.16;102005.91;5040109;28;20148;-77
2022/03/03 10:22:37;;;;;;;19.85;12.00;;;;;;;4.80;62.93;102002.47;5036063;28;20368;-77
2022/03/03 10:25:03;;;;;;;17.63;11.45;;;;;;;4.87;63.10;102011.13;5022254;28;20029;-77
2022/03/03 10:27:31;;;;;;;22.40;11.98;;;;;;;4.94;62.83;102007.66;5040158;28;20049;-77
2022/03/03 10:29:56;;;;;;;18.23;11.98;;;;;;;5.04;62.33;102005.06;5036959;28;20039;-77
2022/03/03 10:32:23;;;;;;;18.33;11.77;;;;;;;5.12;61.43;102004.22;5015949;28;20290;-77
2022/03/03 10:34:49;;;;;;;18.08;11.48;;;;;;;5.19;61.06;101997.31;5039559;28;20059;-77
2022/03/03 10:37:21;;;;;;;17.10;11.70;;;;;;;5.27;61.25;101995.56;5039885;28;20067;-77
2022/03/03 10:39:49;;;;;;;21.98;11.85;;;;;;;5.32;61.10;102000.78;5039932;28;20041;-77
2022/03/03 10:42:19;;;;;;;19.85;11.75;;;;;;;5.36;61.01;101995.56;5039697;28;20122;-77
2022/03/03 10:44:46;;;;;;;19.13;12.05;;;;;;;5.44;60.91;101998.19;5030422;28;20037;-77
2022/03/03 10:47:14;;;;;;;18.05;11.52;;;;;;;5.47;60.77;101986.91;5021250;28;20017;-77
2022/03/03 10:49:45;;;;;;;19.02;11.27;;;;;;;5.53;60.30;101994.69;5039658;28;20229;-77
2022/03/03 10:52:13;;;;;;;14.10;11.07;;;;;;;5.61;60.04;101992.94;5038034;28;20242;-77
2022/03/03 10:54:51;;;;;;;15.68;11.38;;;;;;;5.67;59.92;101992.94;5039843;28;20355;-77
2022/03/03 10:57:38;;;;;;;17.38;11.35;;;;;;;5.76;59.93;101987.69;5034810;28;20061;-77
2022/03/03 11:00:09;;;;;;;17.05;11.32;;;;;;;5.83;59.95;101993.75;5039086;28;20321;-77
2022/03/03 11:02:35;;;;;;;15.70;10.20;;;;;;;5.89;58.93;101990.28;5039881;28;20324;-77
2022/03/03 11:05:01;;;;;;;18.10;11.75;;;;;;;5.98;59.50;101994.63;5036740;28;20333;-77
2022/03/03 11:07:27;;;;;;;23.67;11.98;;;;;;;6.02;58.92;101993.75;5018940;28;20025;-77
2022/03/03 11:09:53;;;;;;;25.17;11.52;;;;;;;6.09;57.72;101991.13;5036761;28;20049;-77
2022/03/03 11:12:19;;;;;;;17.00;10.75;;;;;;;6.17;57.24;101987.63;5038590;28;20132;-77
2022/03/03 11:14:46;;;;;;;14.00;10.15;;;;;;;6.21;57.49;101979.81;5036918;28;20264;-77
2022/03/03 11:17:11;;;;;;;14.82;10.50;;;;;;;6.27;57.25;101977.16;5038939;28;20052;-77
2022/03/03 11:19:41;;;;;;;14.48;10.00;;;;;;;6.32;57.24;101980.63;5038871;28;20086;-77
2022/03/03 11:22:09;;;;;;;17.33;10.00;;;;;;;6.41;55.93;101982.31;5034473;28;20052;-77
2022/03/03 11:24:39;;;;;;;17.77;9.67;;;;;;;6.45;56.24;101976.22;5039631;28;20401;-77
2022/03/03 11:27:06;;;;;;;14.43;9.38;;;;;;;6.50;55.97;101973.59;5021174;28;20048;-77
2022/03/03 11:29:36;;;;;;;14.68;10.13;;;;;;;6.55;55.40;101974.44;5038002;28;20062;-77